sensor_id;sensor_type;location;lat;lon;timestamp;pressure;altitude;pressure_sealevel;temperature;humidity
73457;BME280;61691;53.072;6.582;2023-04-02T00:00:32;101411.94;;;4.26;72.74
73457;BME280;61691;53.072;6.582;2023-04-02T00:03:03;101463.84;;;4.54;72.93
73457;BME280;61691;53.072;6.582;2023-04-02T00:05:40;101473.41;;;4.55;72.59
73457;BME280;61691;53.072;6.582;2023-04-02T00:08:24;101478.72;;;4.53;73.16
73457;BME280;61691;53.072;6.582;2023-04-02T00:13:24;101481.16;;;4.41;73.19
73457;BME280;61691;53.072;6.582;2023-04-02T00:15:56;101443.13;;;4.15;73.03
73457;BME280;61691;53.072;6.582;2023-04-02T00:18:24;101484.19;;;4.33;73.11
73457;BME280;61691;53.072;6.582;2023-04-02T00:20:55;101456.50;;;4.10;73.18
73457;BME280;61691;53.072;6.582;2023-04-02T00:23:26;101505.19;;;4.33;73.07
73457;BME280;61691;53.072;6.582;2023-04-02T00:25:53;101498.63;;;4.24;72.92
73457;BME280;61691;53.072;6.582;2023-04-02T00:28:22;101505.88;;;4.19;72.87
73457;BME280;61691;53.072;6.582;2023-04-02T00:30:52;101520.13;;;4.14;72.96
73457;BME280;61691;53.072;6.582;2023-04-02T00:33:21;101524.84;;;4.07;72.83
73457;BME280;61691;53.072;6.582;2023-04-02T00:35:50;101509.41;;;4.01;72.81
73457;BME280;61691;53.072;6.582;2023-04-02T00:38:29;101511.88;;;3.87;73.12
73457;BME280;61691;53.072;6.582;2023-04-02T00:41:01;101538.25;;;3.84;73.19
73457;BME280;61691;53.072;6.582;2023-04-02T00:43:31;101541.03;;;3.81;73.06
73457;BME280;61691;53.072;6.582;2023-04-02T00:46:03;101534.03;;;3.63;72.91
73457;BME280;61691;53.072;6.582;2023-04-02T00:53:47;101552.50;;;3.42;73.73
73457;BME280;61691;53.072;6.582;2023-04-02T00:56:24;101566.50;;;3.41;73.74
73457;BME280;61691;53.072;6.582;2023-04-02T00:58:54;101578.19;;;3.34;74.00
73457;BME280;61691;53.072;6.582;2023-04-02T01:01:25;101548.53;;;3.15;73.90
73457;BME280;61691;53.072;6.582;2023-04-02T01:04:00;101574.13;;;3.08;74.25
73457;BME280;61691;53.072;6.582;2023-04-02T01:06:29;101577.47;;;3.12;74.18
73457;BME280;61691;53.072;6.582;2023-04-02T01:14:41;101593.53;;;3.04;74.75
73457;BME280;61691;53.072;6.582;2023-04-02T01:24:55;101600.19;;;2.93;74.22
73457;BME280;61691;53.072;6.582;2023-04-02T01:27:31;101580.13;;;2.71;74.51
73457;BME280;61691;53.072;6.582;2023-04-02T01:30:04;101570.31;;;2.56;74.51
73457;BME280;61691;53.072;6.582;2023-04-02T01:32:33;101595.31;;;2.63;74.27
73457;BME280;61691;53.072;6.582;2023-04-02T01:35:02;101604.75;;;2.67;74.07
73457;BME280;61691;53.072;6.582;2023-04-02T01:37:37;101634.19;;;2.72;74.50
73457;BME280;61691;53.072;6.582;2023-04-02T01:43:25;101607.38;;;2.47;74.58
73457;BME280;61691;53.072;6.582;2023-04-02T01:46:04;101622.03;;;2.51;74.03
73457;BME280;61691;53.072;6.582;2023-04-02T01:48:31;101607.16;;;2.31;73.90
73457;BME280;61691;53.072;6.582;2023-04-02T01:50:59;101560.44;;;2.02;74.46
73457;BME280;61691;53.072;6.582;2023-04-02T01:53:29;101630.66;;;2.33;74.28
73457;BME280;61691;53.072;6.582;2023-04-02T01:55:59;101659.72;;;2.47;73.88
73457;BME280;61691;53.072;6.582;2023-04-02T01:58:29;101668.41;;;2.48;74.28
73457;BME280;61691;53.072;6.582;2023-04-02T02:01:00;101675.53;;;2.44;74.26
73457;BME280;61691;53.072;6.582;2023-04-02T02:03:28;101693.03;;;2.42;73.97
73457;BME280;61691;53.072;6.582;2023-04-02T02:05:56;101673.63;;;2.26;73.94
73457;BME280;61691;53.072;6.582;2023-04-02T02:08:36;101690.63;;;2.38;73.76
73457;BME280;61691;53.072;6.582;2023-04-02T02:11:05;101660.22;;;2.13;73.89
73457;BME280;61691;53.072;6.582;2023-04-02T02:13:32;101669.81;;;2.13;73.97
73457;BME280;61691;53.072;6.582;2023-04-02T02:15:59;101702.56;;;2.23;74.14
73457;BME280;61691;53.072;6.582;2023-04-02T02:18:27;101693.31;;;2.14;73.92
73457;BME280;61691;53.072;6.582;2023-04-02T02:20:56;101718.50;;;2.17;73.95
73457;BME280;61691;53.072;6.582;2023-04-02T02:23:27;101717.59;;;2.18;73.09
73457;BME280;61691;53.072;6.582;2023-04-02T02:25:55;101664.72;;;1.88;73.55
73457;BME280;61691;53.072;6.582;2023-04-02T02:28:30;101725.88;;;2.06;73.29
73457;BME280;61691;53.072;6.582;2023-04-02T02:31:04;101738.84;;;2.09;73.20
73457;BME280;61691;53.072;6.582;2023-04-02T02:33:42;101732.03;;;2.05;73.54
73457;BME280;61691;53.072;6.582;2023-04-02T02:39:03;101754.84;;;2.01;73.22
73457;BME280;61691;53.072;6.582;2023-04-02T02:41:40;101754.22;;;1.94;73.41
73457;BME280;61691;53.072;6.582;2023-04-02T02:46:36;101713.63;;;1.61;73.06
73457;BME280;61691;53.072;6.582;2023-04-02T02:49:05;101765.91;;;1.84;72.86
73457;BME280;61691;53.072;6.582;2023-04-02T02:51:49;101761.81;;;1.77;73.26
73457;BME280;61691;53.072;6.582;2023-04-02T02:54:34;101716.00;;;1.44;72.85
73457;BME280;61691;53.072;6.582;2023-04-02T02:57:06;101764.91;;;1.65;72.77
73457;BME280;61691;53.072;6.582;2023-04-02T02:59:35;101778.69;;;1.69;72.51
73457;BME280;61691;53.072;6.582;2023-04-02T03:02:04;101777.84;;;1.68;72.57
73457;BME280;61691;53.072;6.582;2023-04-02T03:04:33;101788.56;;;1.61;72.35
73457;BME280;61691;53.072;6.582;2023-04-02T03:07:02;101784.00;;;1.66;72.63
73457;BME280;61691;53.072;6.582;2023-04-02T03:12:31;101804.19;;;1.62;72.19
73457;BME280;61691;53.072;6.582;2023-04-02T03:17:52;101813.75;;;1.63;72.14
73457;BME280;61691;53.072;6.582;2023-04-02T03:22:59;101821.84;;;1.55;72.19
73457;BME280;61691;53.072;6.582;2023-04-02T03:25:47;101829.63;;;1.57;71.74
73457;BME280;61691;53.072;6.582;2023-04-02T03:28:25;101822.19;;;1.45;71.92
73457;BME280;61691;53.072;6.582;2023-04-02T03:31:02;101838.47;;;1.53;71.82
73457;BME280;61691;53.072;6.582;2023-04-02T03:33:44;101850.72;;;1.51;71.69
73457;BME280;61691;53.072;6.582;2023-04-02T03:36:21;101855.97;;;1.51;71.71
73457;BME280;61691;53.072;6.582;2023-04-02T03:41:43;101857.78;;;1.49;72.41
73457;BME280;61691;53.072;6.582;2023-04-02T03:47:14;101870.91;;;1.47;72.07
73457;BME280;61691;53.072;6.582;2023-04-02T03:52:43;101889.41;;;1.41;72.58
73457;BME280;61691;53.072;6.582;2023-04-02T03:55:13;101856.28;;;1.15;72.90
73457;BME280;61691;53.072;6.582;2023-04-02T04:00:37;101903.59;;;1.33;73.30
73457;BME280;61691;53.072;6.582;2023-04-02T04:03:20;101908.72;;;1.36;73.03
73457;BME280;61691;53.072;6.582;2023-04-02T04:05:55;101897.69;;;1.28;73.41
73457;BME280;61691;53.072;6.582;2023-04-02T04:08:28;101863.78;;;0.98;73.38
73457;BME280;61691;53.072;6.582;2023-04-02T04:11:02;101912.59;;;1.24;73.29
73457;BME280;61691;53.072;6.582;2023-04-02T04:13:39;101910.91;;;1.22;73.66
73457;BME280;61691;53.072;6.582;2023-04-02T04:16:14;101935.03;;;1.30;73.43
73457;BME280;61691;53.072;6.582;2023-04-02T04:18:48;101918.97;;;1.15;73.94
73457;BME280;61691;53.072;6.582;2023-04-02T04:21:23;101942.91;;;1.28;73.78
73457;BME280;61691;53.072;6.582;2023-04-02T04:24:04;101931.19;;;1.13;74.10
73457;BME280;61691;53.072;6.582;2023-04-02T04:26:51;101943.16;;;1.21;74.06
73457;BME280;61691;53.072;6.582;2023-04-02T04:29:39;101956.94;;;1.26;74.27
73457;BME280;61691;53.072;6.582;2023-04-02T04:32:21;101944.38;;;1.10;74.42
73457;BME280;61691;53.072;6.582;2023-04-02T04:34:56;101971.84;;;1.22;74.47
73457;BME280;61691;53.072;6.582;2023-04-02T04:37:30;101954.03;;;1.07;74.22
73457;BME280;61691;53.072;6.582;2023-04-02T04:40:14;101960.84;;;1.12;74.45
73457;BME280;61691;53.072;6.582;2023-04-02T04:42:43;101984.94;;;1.21;74.56
73457;BME280;61691;53.072;6.582;2023-04-02T04:48:06;101987.03;;;1.09;75.03
73457;BME280;61691;53.072;6.582;2023-04-02T04:50:58;101998.13;;;1.17;75.22
73457;BME280;61691;53.072;6.582;2023-04-02T04:53:27;101977.72;;;1.01;75.29
73457;BME280;61691;53.072;6.582;2023-04-02T04:56:00;102000.97;;;1.10;75.38
73457;BME280;61691;53.072;6.582;2023-04-02T04:58:55;102018.31;;;1.12;75.45
73457;BME280;61691;53.072;6.582;2023-04-02T05:01:42;101968.78;;;0.80;75.88
73457;BME280;61691;53.072;6.582;2023-04-02T05:04:25;102029.56;;;1.13;75.81
73457;BME280;61691;53.072;6.582;2023-04-02T05:09:39;102020.34;;;1.01;75.81
73457;BME280;61691;53.072;6.582;2023-04-02T05:12:40;102046.03;;;1.16;75.53
73457;BME280;61691;53.072;6.582;2023-04-02T05:17:47;102058.38;;;1.11;76.07
73457;BME280;61691;53.072;6.582;2023-04-02T05:20:24;102060.88;;;1.14;75.74
73457;BME280;61691;53.072;6.582;2023-04-02T05:25:54;102072.84;;;1.22;75.86
73457;BME280;61691;53.072;6.582;2023-04-02T05:28:46;102080.88;;;1.15;75.87
73457;BME280;61691;53.072;6.582;2023-04-02T05:34:24;102066.09;;;1.14;75.42
73457;BME280;61691;53.072;6.582;2023-04-02T05:36:52;102089.06;;;1.33;75.39
73457;BME280;61691;53.072;6.582;2023-04-02T05:39:22;102095.16;;;1.33;74.95
73457;BME280;61691;53.072;6.582;2023-04-02T05:42:00;102101.25;;;1.34;74.86
73457;BME280;61691;53.072;6.582;2023-04-02T05:44:38;102002.00;;;0.75;75.26
73457;BME280;61691;53.072;6.582;2023-04-02T05:47:19;102112.31;;;1.42;74.94
73457;BME280;61691;53.072;6.582;2023-04-02T05:50:04;102100.38;;;1.33;74.96
73457;BME280;61691;53.072;6.582;2023-04-02T05:52:42;102111.50;;;1.40;74.93
73457;BME280;61691;53.072;6.582;2023-04-02T05:57:42;102069.53;;;1.16;75.13
73457;BME280;61691;53.072;6.582;2023-04-02T06:00:46;102079.03;;;1.19;74.51
73457;BME280;61691;53.072;6.582;2023-04-02T06:03:23;102160.31;;;1.67;74.71
73457;BME280;61691;53.072;6.582;2023-04-02T06:05:58;102152.47;;;1.67;74.59
73457;BME280;61691;53.072;6.582;2023-04-02T06:08:33;102167.00;;;1.77;74.59
73457;BME280;61691;53.072;6.582;2023-04-02T06:11:13;102165.28;;;1.76;74.34
73457;BME280;61691;53.072;6.582;2023-04-02T06:13:42;102166.09;;;1.78;73.98
73457;BME280;61691;53.072;6.582;2023-04-02T06:16:13;102169.22;;;1.89;73.70
73457;BME280;61691;53.072;6.582;2023-04-02T06:18:41;102179.69;;;1.89;73.51
73457;BME280;61691;53.072;6.582;2023-04-02T06:21:13;102187.50;;;1.91;73.97
73457;BME280;61691;53.072;6.582;2023-04-02T06:23:46;102202.63;;;2.09;73.73
73457;BME280;61691;53.072;6.582;2023-04-02T06:26:33;102220.78;;;2.14;72.77
73457;BME280;61691;53.072;6.582;2023-04-02T06:29:14;102208.63;;;2.13;72.80
73457;BME280;61691;53.072;6.582;2023-04-02T06:31:47;102231.94;;;2.20;73.23
73457;BME280;61691;53.072;6.582;2023-04-02T06:34:20;102241.16;;;2.32;72.56
73457;BME280;61691;53.072;6.582;2023-04-02T06:36:49;102237.47;;;2.39;71.97
73457;BME280;61691;53.072;6.582;2023-04-02T06:39:19;102244.09;;;2.49;71.53
73457;BME280;61691;53.072;6.582;2023-04-02T06:42:12;102247.13;;;2.63;71.16
73457;BME280;61691;53.072;6.582;2023-04-02T06:44:39;102242.66;;;2.67;70.87
73457;BME280;61691;53.072;6.582;2023-04-02T06:47:21;102264.56;;;2.91;70.82
73457;BME280;61691;53.072;6.582;2023-04-02T06:49:56;102255.94;;;2.87;70.22
73457;BME280;61691;53.072;6.582;2023-04-02T06:52:43;102249.00;;;2.86;70.27
73457;BME280;61691;53.072;6.582;2023-04-02T06:58:17;102252.34;;;2.91;70.31
73457;BME280;61691;53.072;6.582;2023-04-02T07:00:47;102274.75;;;3.00;69.80
73457;BME280;61691;53.072;6.582;2023-04-02T07:03:19;102279.06;;;3.01;70.04
73457;BME280;61691;53.072;6.582;2023-04-02T07:05:48;102265.91;;;3.02;69.93
73457;BME280;61691;53.072;6.582;2023-04-02T07:08:14;102274.38;;;3.10;68.74
73457;BME280;61691;53.072;6.582;2023-04-02T07:10:41;102254.88;;;3.19;68.87
73457;BME280;61691;53.072;6.582;2023-04-02T07:13:13;102289.44;;;3.78;68.88
73457;BME280;61691;53.072;6.582;2023-04-02T07:15:40;102286.16;;;4.20;66.97
73457;BME280;61691;53.072;6.582;2023-04-02T07:18:23;102301.38;;;4.99;67.46
73457;BME280;61691;53.072;6.582;2023-04-02T07:20:51;102300.00;;;5.92;67.20
73457;BME280;61691;53.072;6.582;2023-04-02T07:23:18;102304.34;;;6.68;64.00
73457;BME280;61691;53.072;6.582;2023-04-02T07:25:52;102274.63;;;7.00;60.96
73457;BME280;61691;53.072;6.582;2023-04-02T07:28:19;102310.91;;;7.81;60.05
73457;BME280;61691;53.072;6.582;2023-04-02T07:30:48;102316.91;;;8.00;57.37
73457;BME280;61691;53.072;6.582;2023-04-02T07:33:18;102246.53;;;7.33;55.42
73457;BME280;61691;53.072;6.582;2023-04-02T07:35:46;102325.53;;;7.19;55.17
73457;BME280;61691;53.072;6.582;2023-04-02T07:38:13;102301.75;;;6.30;55.48
73457;BME280;61691;53.072;6.582;2023-04-02T07:40:40;102318.44;;;5.92;56.21
73457;BME280;61691;53.072;6.582;2023-04-02T07:43:07;102321.31;;;5.65;57.93
73457;BME280;61691;53.072;6.582;2023-04-02T07:45:34;102312.09;;;5.35;58.66
73457;BME280;61691;53.072;6.582;2023-04-02T07:48:05;102331.84;;;5.25;58.38
73457;BME280;61691;53.072;6.582;2023-04-02T07:50:33;102297.66;;;4.83;58.45
73457;BME280;61691;53.072;6.582;2023-04-02T07:53:00;102307.81;;;4.70;59.47
73457;BME280;61691;53.072;6.582;2023-04-02T07:55:27;102338.28;;;4.74;59.89
73457;BME280;61691;53.072;6.582;2023-04-02T07:57:56;102327.69;;;4.54;60.38
73457;BME280;61691;53.072;6.582;2023-04-02T08:00:24;102356.00;;;4.69;60.29
73457;BME280;61691;53.072;6.582;2023-04-02T08:02:51;102352.47;;;4.70;60.62
73457;BME280;61691;53.072;6.582;2023-04-02T08:05:19;102354.22;;;4.70;60.45
73457;BME280;61691;53.072;6.582;2023-04-02T08:07:53;102355.44;;;4.61;60.63
73457;BME280;61691;53.072;6.582;2023-04-02T08:10:21;102363.56;;;4.55;60.89
73457;BME280;61691;53.072;6.582;2023-04-02T08:12:48;102362.75;;;4.53;61.44
73457;BME280;61691;53.072;6.582;2023-04-02T08:15:16;102374.72;;;4.60;61.01
73457;BME280;61691;53.072;6.582;2023-04-02T08:17:43;102373.78;;;4.62;61.28
73457;BME280;61691;53.072;6.582;2023-04-02T08:20:15;102383.53;;;4.59;61.08
73457;BME280;61691;53.072;6.582;2023-04-02T08:22:44;102380.34;;;4.51;61.31
73457;BME280;61691;53.072;6.582;2023-04-02T08:25:11;102350.50;;;4.30;61.38
73457;BME280;61691;53.072;6.582;2023-04-02T08:27:38;102371.91;;;4.43;61.43
73457;BME280;61691;53.072;6.582;2023-04-02T08:30:07;102393.03;;;4.40;62.11
73457;BME280;61691;53.072;6.582;2023-04-02T08:32:34;102363.81;;;4.25;61.66
73457;BME280;61691;53.072;6.582;2023-04-02T08:35:01;102368.72;;;4.35;61.68
73457;BME280;61691;53.072;6.582;2023-04-02T08:37:28;102381.13;;;4.29;61.62
73457;BME280;61691;53.072;6.582;2023-04-02T08:39:55;102400.66;;;4.46;61.98
73457;BME280;61691;53.072;6.582;2023-04-02T08:42:34;102404.91;;;4.50;61.43
73457;BME280;61691;53.072;6.582;2023-04-02T08:48:09;102403.84;;;4.54;62.27
73457;BME280;61691;53.072;6.582;2023-04-02T08:50:38;102432.69;;;4.79;62.45
73457;BME280;61691;53.072;6.582;2023-04-02T08:53:18;102421.34;;;5.00;62.35
73457;BME280;61691;53.072;6.582;2023-04-02T08:56:06;102394.31;;;4.96;62.12
73457;BME280;61691;53.072;6.582;2023-04-02T08:58:40;102440.06;;;5.14;60.55
73457;BME280;61691;53.072;6.582;2023-04-02T09:04:14;102437.69;;;4.85;60.57
73457;BME280;61691;53.072;6.582;2023-04-02T09:06:42;102447.34;;;4.84;60.71
73457;BME280;61691;53.072;6.582;2023-04-02T09:09:11;102448.97;;;4.88;60.87
73457;BME280;61691;53.072;6.582;2023-04-02T09:11:52;102452.38;;;4.90;61.63
73457;BME280;61691;53.072;6.582;2023-04-02T09:14:28;102445.19;;;4.95;61.57
73457;BME280;61691;53.072;6.582;2023-04-02T09:17:04;102449.44;;;4.98;61.74
73457;BME280;61691;53.072;6.582;2023-04-02T09:19:40;102458.50;;;5.13;61.04
73457;BME280;61691;53.072;6.582;2023-04-02T09:22:20;102452.09;;;5.20;61.39
73457;BME280;61691;53.072;6.582;2023-04-02T09:24:56;102459.00;;;5.22;61.51
73457;BME280;61691;53.072;6.582;2023-04-02T09:27:28;102471.84;;;5.30;61.13
73457;BME280;61691;53.072;6.582;2023-04-02T09:30:05;102428.47;;;4.96;60.38
73457;BME280;61691;53.072;6.582;2023-04-02T09:41:16;102489.69;;;5.43;61.00
73457;BME280;61691;53.072;6.582;2023-04-02T09:43:44;102502.44;;;5.54;60.76
73457;BME280;61691;53.072;6.582;2023-04-02T09:46:22;102437.91;;;5.24;59.84
73457;BME280;61691;53.072;6.582;2023-04-02T09:48:53;102477.97;;;5.52;59.93
73457;BME280;61691;53.072;6.582;2023-04-02T09:51:25;102473.56;;;5.53;59.83
73457;BME280;61691;53.072;6.582;2023-04-02T09:56:30;102482.59;;;5.67;59.51
73457;BME280;61691;53.072;6.582;2023-04-02T10:07:01;102505.69;;;6.03;60.20
73457;BME280;61691;53.072;6.582;2023-04-02T10:09:36;102510.19;;;6.21;59.64
73457;BME280;61691;53.072;6.582;2023-04-02T10:12:06;102508.59;;;6.17;58.49
73457;BME280;61691;53.072;6.582;2023-04-02T10:14:42;102516.91;;;6.28;58.11
73457;BME280;61691;53.072;6.582;2023-04-02T10:17:16;102515.31;;;6.24;57.88
73457;BME280;61691;53.072;6.582;2023-04-02T10:19:49;102473.97;;;6.06;58.50
73457;BME280;61691;53.072;6.582;2023-04-02T10:22:19;102508.63;;;6.37;57.66
73457;BME280;61691;53.072;6.582;2023-04-02T10:24:47;102477.78;;;6.19;58.38
73457;BME280;61691;53.072;6.582;2023-04-02T10:30:14;102530.53;;;6.58;57.84
73457;BME280;61691;53.072;6.582;2023-04-02T10:32:58;102514.97;;;6.52;58.35
73457;BME280;61691;53.072;6.582;2023-04-02T10:47:03;102553.09;;;6.84;56.39
73457;BME280;61691;53.072;6.582;2023-04-02T10:50:22;102525.31;;;6.56;55.88
73457;BME280;61691;53.072;6.582;2023-04-02T10:52:30;102534.53;;;6.67;56.52
73457;BME280;61691;53.072;6.582;2023-04-02T10:55:04;102544.66;;;6.76;56.57
73457;BME280;61691;53.072;6.582;2023-04-02T10:57:42;102550.19;;;6.90;55.51
73457;BME280;61691;53.072;6.582;2023-04-02T11:05:40;102556.09;;;6.95;54.57
73457;BME280;61691;53.072;6.582;2023-04-02T11:10:45;102566.56;;;7.15;55.65
73457;BME280;61691;53.072;6.582;2023-04-02T11:13:19;102549.81;;;7.16;56.32
73457;BME280;61691;53.072;6.582;2023-04-02T11:15:48;102525.16;;;7.17;56.05
73457;BME280;61691;53.072;6.582;2023-04-02T11:18:33;102550.09;;;7.48;56.26
73457;BME280;61691;53.072;6.582;2023-04-02T11:24:00;102567.66;;;7.85;55.49
73457;BME280;61691;53.072;6.582;2023-04-02T11:29:21;102506.34;;;7.44;55.19
73457;BME280;61691;53.072;6.582;2023-04-02T11:31:50;102571.88;;;7.89;54.83
73457;BME280;61691;53.072;6.582;2023-04-02T11:37:43;102566.66;;;7.87;53.92
73457;BME280;61691;53.072;6.582;2023-04-02T11:50:33;102599.81;;;8.11;55.10
73457;BME280;61691;53.072;6.582;2023-04-02T11:55:37;102603.03;;;8.35;54.09
73457;BME280;61691;53.072;6.582;2023-04-02T12:01:10;102609.91;;;8.21;54.23
73457;BME280;61691;53.072;6.582;2023-04-02T12:11:41;102620.66;;;7.99;53.37
73457;BME280;61691;53.072;6.582;2023-04-02T12:22:50;102600.09;;;8.05;51.72
73457;BME280;61691;53.072;6.582;2023-04-02T12:25:35;102595.03;;;8.01;52.44
73457;BME280;61691;53.072;6.582;2023-04-02T12:30:36;102635.38;;;8.22;52.36
73457;BME280;61691;53.072;6.582;2023-04-02T12:33:33;102581.28;;;7.94;53.01
73457;BME280;61691;53.072;6.582;2023-04-02T12:36:05;102635.88;;;8.30;52.93
73457;BME280;61691;53.072;6.582;2023-04-02T12:38:53;102638.69;;;8.44;52.82
73457;BME280;61691;53.072;6.582;2023-04-02T12:41:28;102627.91;;;8.31;52.40
73457;BME280;61691;53.072;6.582;2023-04-02T12:46:53;102605.94;;;8.29;52.48
73457;BME280;61691;53.072;6.582;2023-04-02T12:52:05;102616.81;;;8.42;52.52
73457;BME280;61691;53.072;6.582;2023-04-02T12:54:43;102643.69;;;8.50;51.47
73457;BME280;61691;53.072;6.582;2023-04-02T12:59:56;102651.16;;;8.59;52.13
73457;BME280;61691;53.072;6.582;2023-04-02T13:02:25;102664.38;;;8.59;51.50
73457;BME280;61691;53.072;6.582;2023-04-02T13:04:57;102636.22;;;8.41;51.21
73457;BME280;61691;53.072;6.582;2023-04-02T13:07:32;102611.78;;;8.19;51.70
73457;BME280;61691;53.072;6.582;2023-04-02T13:10:01;102659.41;;;8.53;51.38
73457;BME280;61691;53.072;6.582;2023-04-02T13:12:36;102661.09;;;8.54;51.22
73457;BME280;61691;53.072;6.582;2023-04-02T13:15:06;102606.78;;;8.12;51.03
73457;BME280;61691;53.072;6.582;2023-04-02T13:17:42;102622.22;;;8.39;51.41
73457;BME280;61691;53.072;6.582;2023-04-02T13:20:29;102598.88;;;8.30;51.21
73457;BME280;61691;53.072;6.582;2023-04-02T13:22:58;102665.84;;;8.82;51.85
73457;BME280;61691;53.072;6.582;2023-04-02T13:25:31;102606.22;;;8.59;51.48
73457;BME280;61691;53.072;6.582;2023-04-02T13:28:01;102632.97;;;8.70;51.62
73457;BME280;61691;53.072;6.582;2023-04-02T13:30:28;102635.44;;;8.73;49.92
73457;BME280;61691;53.072;6.582;2023-04-02T13:32:55;102645.88;;;8.76;51.06
73457;BME280;61691;53.072;6.582;2023-04-02T13:35:22;102627.34;;;8.59;52.26
73457;BME280;61691;53.072;6.582;2023-04-02T13:37:48;102639.31;;;8.66;50.69
73457;BME280;61691;53.072;6.582;2023-04-02T13:40:16;102675.09;;;8.90;50.87
73457;BME280;61691;53.072;6.582;2023-04-02T13:42:45;102653.94;;;8.90;49.17
73457;BME280;61691;53.072;6.582;2023-04-02T13:45:26;102676.97;;;8.88;50.04
73457;BME280;61691;53.072;6.582;2023-04-02T13:47:54;102646.34;;;8.67;50.40
73457;BME280;61691;53.072;6.582;2023-04-02T13:50:30;102679.59;;;8.88;50.80
73457;BME280;61691;53.072;6.582;2023-04-02T13:52:59;102676.97;;;8.88;50.96
73457;BME280;61691;53.072;6.582;2023-04-02T13:55:30;102609.56;;;8.63;51.52
73457;BME280;61691;53.072;6.582;2023-04-02T13:58:00;102682.09;;;9.09;50.63
73457;BME280;61691;53.072;6.582;2023-04-02T14:00:27;102689.84;;;9.12;50.99
73457;BME280;61691;53.072;6.582;2023-04-02T14:02:59;102699.44;;;9.14;51.07
73457;BME280;61691;53.072;6.582;2023-04-02T14:05:49;102693.28;;;9.14;50.97
73457;BME280;61691;53.072;6.582;2023-04-02T14:08:48;102596.50;;;8.42;50.60
73457;BME280;61691;53.072;6.582;2023-04-02T14:11:50;102689.63;;;8.82;50.66
73457;BME280;61691;53.072;6.582;2023-04-02T14:25:53;102698.13;;;8.88;51.42
73457;BME280;61691;53.072;6.582;2023-04-02T14:28:34;102618.81;;;8.54;51.27
73457;BME280;61691;53.072;6.582;2023-04-02T14:31:26;102701.94;;;8.83;50.26
73457;BME280;61691;53.072;6.582;2023-04-02T14:34:08;102705.69;;;8.79;50.79
73457;BME280;61691;53.072;6.582;2023-04-02T14:41:55;102695.78;;;8.65;50.06
73457;BME280;61691;53.072;6.582;2023-04-02T14:44:27;102695.16;;;8.60;50.10
73457;BME280;61691;53.072;6.582;2023-04-02T14:47:09;102718.97;;;8.77;50.30
73457;BME280;61691;53.072;6.582;2023-04-02T14:49:41;102709.63;;;8.70;49.45
73457;BME280;61691;53.072;6.582;2023-04-02T14:52:16;102718.50;;;8.69;50.04
73457;BME280;61691;53.072;6.582;2023-04-02T14:54:53;102711.63;;;8.65;49.26
73457;BME280;61691;53.072;6.582;2023-04-02T14:58:04;102722.38;;;8.62;48.63
73457;BME280;61691;53.072;6.582;2023-04-02T15:00:40;102724.53;;;8.54;49.42
73457;BME280;61691;53.072;6.582;2023-04-02T15:03:24;102672.75;;;8.33;49.38
73457;BME280;61691;53.072;6.582;2023-04-02T15:05:57;102723.00;;;8.67;49.50
73457;BME280;61691;53.072;6.582;2023-04-02T15:08:27;102669.56;;;8.43;49.56
73457;BME280;61691;53.072;6.582;2023-04-02T15:13:51;102702.53;;;8.53;48.72
73457;BME280;61691;53.072;6.582;2023-04-02T15:16:22;102727.34;;;8.68;49.10
73457;BME280;61691;53.072;6.582;2023-04-02T15:18:55;102721.94;;;8.71;49.12
73457;BME280;61691;53.072;6.582;2023-04-02T15:32:23;102732.03;;;8.80;46.71
73457;BME280;61691;53.072;6.582;2023-04-02T15:43:15;102730.94;;;8.67;46.71
73457;BME280;61691;53.072;6.582;2023-04-02T15:45:58;102750.16;;;8.88;47.08
73457;BME280;61691;53.072;6.582;2023-04-02T16:05:16;102762.22;;;8.76;45.82
73457;BME280;61691;53.072;6.582;2023-04-02T16:10:35;102746.78;;;8.67;45.76
73457;BME280;61691;53.072;6.582;2023-04-02T16:13:32;102778.94;;;8.77;45.04
73457;BME280;61691;53.072;6.582;2023-04-02T16:21:19;102773.22;;;8.67;46.05
73457;BME280;61691;53.072;6.582;2023-04-02T16:23:47;102794.19;;;8.72;45.41
73457;BME280;61691;53.072;6.582;2023-04-02T16:31:23;102797.19;;;8.64;46.15
73457;BME280;61691;53.072;6.582;2023-04-02T16:34:13;102781.28;;;8.47;45.78
73457;BME280;61691;53.072;6.582;2023-04-02T16:45:06;102786.69;;;8.44;45.99
73457;BME280;61691;53.072;6.582;2023-04-02T16:50:44;102819.84;;;8.51;45.98
73457;BME280;61691;53.072;6.582;2023-04-02T16:59:41;102811.09;;;8.30;46.38
73457;BME280;61691;53.072;6.582;2023-04-02T17:10:29;102846.16;;;8.15;45.98
73457;BME280;61691;53.072;6.582;2023-04-02T17:13:01;102845.31;;;8.14;46.76
73457;BME280;61691;53.072;6.582;2023-04-02T17:15:35;102854.22;;;8.12;46.56
73457;BME280;61691;53.072;6.582;2023-04-02T17:18:21;102856.22;;;8.07;47.19
73457;BME280;61691;53.072;6.582;2023-04-02T17:20:50;102851.34;;;7.98;46.90
73457;BME280;61691;53.072;6.582;2023-04-02T17:23:18;102864.47;;;7.99;46.88
73457;BME280;61691;53.072;6.582;2023-04-02T17:26:05;102863.97;;;7.91;47.58
73457;BME280;61691;53.072;6.582;2023-04-02T17:28:33;102873.53;;;7.94;47.12
73457;BME280;61691;53.072;6.582;2023-04-02T17:31:06;102879.16;;;7.86;46.65
73457;BME280;61691;53.072;6.582;2023-04-02T17:33:37;102834.69;;;7.57;46.89
73457;BME280;61691;53.072;6.582;2023-04-02T17:36:30;102812.81;;;7.34;46.92
73457;BME280;61691;53.072;6.582;2023-04-02T17:41:41;102887.09;;;7.66;46.61
73457;BME280;61691;53.072;6.582;2023-04-02T17:52:13;102902.13;;;7.44;46.69
73457;BME280;61691;53.072;6.582;2023-04-02T17:55:05;102907.53;;;7.41;47.22
73457;BME280;61691;53.072;6.582;2023-04-02T18:05:45;102917.94;;;7.22;48.45
73457;BME280;61691;53.072;6.582;2023-04-02T18:08:26;102918.41;;;7.11;49.54
73457;BME280;61691;53.072;6.582;2023-04-02T18:11:13;102921.28;;;7.05;49.26
73457;BME280;61691;53.072;6.582;2023-04-02T18:16:40;102935.84;;;6.92;49.60
73457;BME280;61691;53.072;6.582;2023-04-02T18:22:09;102936.22;;;6.83;49.95
73457;BME280;61691;53.072;6.582;2023-04-02T18:30:25;102949.25;;;6.64;50.25